Time;durP1;ratioP1;P1;durP2;ratioP2;P2;SDS_P1;SDS_P2;PMS_P1;PMS_P2;Temp;Humidity;BMP_temperature;BMP_pressure;BME280_temperature;BME280_humidity;BME280_pressure;Samples;Min_cycle;Max_cycle;Signal;HPM_P1;HPM_P2
2023/05/19 00:00:59;;;;;;;6.82;4.13;;;12.40;99.90;;;;;;5036633;28;20029;-72
2023/05/19 00:03:25;;;;;;;10.95;4.95;;;12.40;99.90;;;;;;5037663;28;20014;-72
2023/05/19 00:05:52;;;;;;;6.65;4.43;;;12.40;99.90;;;;;;5037936;28;20029;-72
2023/05/19 00:08:19;;;;;;;6.35;4.63;;;12.40;99.90;;;;;;5037877;28;20017;-72
2023/05/19 00:10:45;;;;;;;8.40;4.50;;;12.40;99.90;;;;;;5031197;28;20861;-69
2023/05/19 00:13:11;;;;;;;7.07;4.13;;;12.40;99.90;;;;;;5037714;28;20021;-69
2023/05/19 00:15:37;;;;;;;8.38;4.85;;;12.30;99.90;;;;;;5037709;28;20033;-69
2023/05/19 00:18:03;;;;;;;6.18;4.72;;;12.30;99.90;;;;;;5035936;28;20048;-72
2023/05/19 00:20:29;;;;;;;7.65;4.43;;;12.30;99.90;;;;;;5037597;28;20500;-72
2023/05/19 00:22:54;;;;;;;8.50;4.57;;;12.30;99.90;;;;;;5032568;28;20159;-69
2023/05/19 00:25:20;;;;;;;7.25;4.20;;;12.30;99.90;;;;;;5036446;28;20021;-70
2023/05/19 00:27:46;;;;;;;9.52;4.55;;;12.30;99.90;;;;;;5036041;28;20104;-69
2023/05/19 00:30:12;;;;;;;10.30;4.43;;;12.30;99.90;;;;;;5037402;28;20056;-69
2023/05/19 00:32:37;;;;;;;8.27;4.57;;;12.30;99.90;;;;;;5036798;28;20096;-69
2023/05/19 00:35:03;;;;;;;11.73;4.32;;;12.40;99.90;;;;;;5037081;28;20053;-69
2023/05/19 00:37:29;;;;;;;8.27;4.57;;;12.40;99.90;;;;;;5037269;28;20049;-69
2023/05/19 00:39:54;;;;;;;7.63;5.05;;;12.40;99.90;;;;;;5037339;28;20056;-69
2023/05/19 00:42:20;;;;;;;7.22;4.40;;;12.40;99.90;;;;;;5037298;28;20028;-69
2023/05/19 00:44:46;;;;;;;6.85;4.18;;;12.40;99.90;;;;;;5037267;28;20072;-69
2023/05/19 00:47:12;;;;;;;8.88;4.38;;;12.40;99.90;;;;;;5037104;28;20513;-69
2023/05/19 00:49:37;;;;;;;6.65;4.22;;;12.40;99.90;;;;;;5037121;28;20037;-71
2023/05/19 00:52:05;;;;;;;7.55;4.30;;;12.30;99.90;;;;;;5037116;28;20025;-69
2023/05/19 00:54:32;;;;;;;10.18;4.75;;;12.30;99.90;;;;;;5037066;28;20037;-69
2023/05/19 00:56:59;;;;;;;6.70;4.72;;;12.30;99.90;;;;;;5036978;28;20021;-69
2023/05/19 00:59:25;;;;;;;7.35;4.57;;;12.30;99.90;;;;;;5036966;28;20162;-70
2023/05/19 01:01:51;;;;;;;7.00;4.28;;;12.30;99.90;;;;;;5037014;28;20021;-70
2023/05/19 01:04:20;;;;;;;6.47;4.38;;;12.30;99.90;;;;;;5036701;28;20089;-69
2023/05/19 01:06:56;;;;;;;6.82;4.50;;;12.30;99.90;;;;;;5036946;28;20386;-70
2023/05/19 01:09:22;;;;;;;8.75;4.97;;;12.30;99.90;;;;;;5023649;28;20061;-70
2023/05/19 01:11:49;;;;;;;6.40;4.05;;;12.30;99.90;;;;;;5037016;28;20021;-70
2023/05/19 01:14:15;;;;;;;7.55;4.32;;;12.30;99.90;;;;;;5036967;28;20025;-70
2023/05/19 01:17:04;;;;;;;14.35;5.20;;;12.30;99.90;;;;;;5036873;28;20040;-69
2023/05/19 01:19:49;;;;;;;6.75;4.45;;;12.30;99.90;;;;;;5036333;28;20038;-69
2023/05/19 01:22:53;;;;;;;8.23;4.30;;;12.30;99.90;;;;;;5036769;28;20041;-69
2023/05/19 01:26:04;;;;;;;7.72;4.13;;;12.20;99.90;;;;;;5035407;28;20026;-69
2023/05/19 01:28:50;;;;;;;6.07;4.00;;;12.20;99.90;;;;;;5030447;28;20033;-69
2023/05/19 01:31:20;;;;;;;8.57;4.90;;;12.20;99.90;;;;;;5030762;28;20474;-69
2023/05/19 01:33:47;;;;;;;5.63;4.30;;;12.20;99.90;;;;;;5036191;28;20021;-70
2023/05/19 01:36:14;;;;;;;7.85;4.55;;;12.20;99.90;;;;;;5035418;28;20067;-69
2023/05/19 01:38:41;;;;;;;9.65;4.38;;;12.20;99.90;;;;;;5035374;28;20089;-69
2023/05/19 01:41:08;;;;;;;8.90;4.88;;;12.20;99.90;;;;;;5036708;28;20076;-70
2023/05/19 01:43:35;;;;;;;8.40;4.07;;;12.20;99.90;;;;;;5036465;28;20018;-69
2023/05/19 01:46:01;;;;;;;7.07;4.10;;;12.20;99.90;;;;;;5040056;28;20017;-69
2023/05/19 01:48:28;;;;;;;7.55;4.82;;;12.20;99.90;;;;;;5040110;28;20041;-69
2023/05/19 01:50:56;;;;;;;10.13;4.30;;;12.20;99.90;;;;;;5040552;28;20053;-69
2023/05/19 01:53:22;;;;;;;9.77;6.15;;;12.20;99.90;;;;;;5039132;28;20029;-69
2023/05/19 01:55:51;;;;;;;6.43;4.57;;;12.20;99.90;;;;;;5040334;28;20556;-69
2023/05/19 01:58:20;;;;;;;5.28;4.05;;;12.20;99.90;;;;;;5040206;28;20030;-69
2023/05/19 02:00:52;;;;;;;7.32;4.50;;;12.20;99.90;;;;;;5038856;28;20030;-69
2023/05/19 02:03:41;;;;;;;8.40;4.55;;;12.20;99.90;;;;;;5039885;28;20546;-69
2023/05/19 02:06:33;;;;;;;7.28;4.70;;;12.20;99.90;;;;;;5040244;28;20022;-69
2023/05/19 02:09:03;;;;;;;7.72;4.65;;;12.20;99.90;;;;;;5037476;28;20022;-70
2023/05/19 02:11:44;;;;;;;6.55;4.60;;;12.20;99.90;;;;;;5036392;28;20025;-70
2023/05/19 02:14:19;;;;;;;13.32;4.78;;;12.20;99.90;;;;;;5040233;28;20028;-71
2023/05/19 02:16:47;;;;;;;8.82;4.53;;;12.20;99.90;;;;;;5033712;28;20029;-70
2023/05/19 02:19:27;;;;;;;8.25;4.38;;;12.20;99.90;;;;;;5039422;28;20041;-70
2023/05/19 02:21:52;;;;;;;8.60;4.50;;;12.20;99.90;;;;;;5038670;28;20508;-70
2023/05/19 02:24:21;;;;;;;10.05;4.85;;;12.20;99.90;;;;;;5039909;28;20393;-69
2023/05/19 02:26:49;;;;;;;9.07;4.15;;;12.20;99.90;;;;;;5039920;28;20433;-70
2023/05/19 02:29:15;;;;;;;8.32;4.60;;;12.20;99.90;;;;;;5039680;28;20034;-70
2023/05/19 02:31:40;;;;;;;6.50;5.43;;;12.20;99.90;;;;;;5039832;28;20036;-70
2023/05/19 02:34:07;;;;;;;10.43;4.68;;;12.10;99.90;;;;;;5039210;28;20022;-70
2023/05/19 02:36:35;;;;;;;12.20;4.07;;;12.10;99.90;;;;;;5039719;28;20039;-70
2023/05/19 02:39:01;;;;;;;9.45;4.65;;;12.00;99.90;;;;;;5039548;28;20096;-70
2023/05/19 02:41:27;;;;;;;8.32;4.88;;;12.00;99.90;;;;;;5039504;28;20024;-70
2023/05/19 02:43:53;;;;;;;7.38;4.65;;;11.90;99.90;;;;;;5039504;28;20018;-70
2023/05/19 02:46:19;;;;;;;5.20;4.07;;;11.90;99.90;;;;;;5039470;28;20050;-70
2023/05/19 02:48:44;;;;;;;8.07;4.63;;;11.80;99.90;;;;;;5037763;28;20079;-70
2023/05/19 02:51:10;;;;;;;8.10;5.07;;;11.80;99.90;;;;;;5039523;28;20584;-69
2023/05/19 02:53:36;;;;;;;10.38;4.30;;;11.80;99.90;;;;;;5039285;28;20047;-71
2023/05/19 02:56:01;;;;;;;12.38;4.70;;;11.70;99.90;;;;;;5037403;28;20394;-70
2023/05/19 02:58:27;;;;;;;9.98;4.88;;;11.70;99.90;;;;;;5039034;28;20047;-71
2023/05/19 03:00:53;;;;;;;12.32;5.57;;;11.70;99.90;;;;;;5038906;28;20032;-70
2023/05/19 03:03:19;;;;;;;11.07;4.75;;;11.70;99.90;;;;;;5037531;28;20024;-71
2023/05/19 03:05:46;;;;;;;6.18;4.80;;;11.60;99.90;;;;;;5038626;28;20104;-70
2023/05/19 03:08:11;;;;;;;12.32;4.95;;;11.60;99.90;;;;;;5038535;28;20033;-71
2023/05/19 03:10:37;;;;;;;9.82;5.28;;;11.60;99.90;;;;;;5033294;28;20017;-70
2023/05/19 03:13:03;;;;;;;10.52;5.25;;;11.50;99.90;;;;;;5038984;28;20022;-70
2023/05/19 03:15:29;;;;;;;9.65;5.22;;;11.50;99.90;;;;;;5037656;28;20112;-70
2023/05/19 03:17:55;;;;;;;8.60;4.68;;;11.50;99.90;;;;;;5037345;28;20037;-70
2023/05/19 03:20:21;;;;;;;6.40;4.93;;;11.50;99.90;;;;;;5038508;28;20041;-69
2023/05/19 03:22:46;;;;;;;9.55;4.97;;;11.50;99.90;;;;;;5038711;28;20391;-70
2023/05/19 03:25:12;;;;;;;10.18;4.90;;;11.50;99.90;;;;;;5038769;28;20091;-70
2023/05/19 03:27:38;;;;;;;8.18;5.05;;;11.50;99.90;;;;;;5038567;28;20403;-69
2023/05/19 03:30:04;;;;;;;12.25;6.30;;;11.50;99.90;;;;;;5038602;28;20022;-70
2023/05/19 03:32:31;;;;;;;11.05;4.53;;;11.50;99.90;;;;;;5038239;28;20793;-70
2023/05/19 03:34:57;;;;;;;12.68;5.13;;;11.50;99.90;;;;;;5038177;28;20021;-70
2023/05/19 03:37:23;;;;;;;10.07;4.72;;;11.50;99.90;;;;;;5038374;28;20474;-69
2023/05/19 03:39:49;;;;;;;6.05;4.55;;;11.50;99.90;;;;;;5038372;28;20018;-70
2023/05/19 03:42:14;;;;;;;10.18;4.68;;;11.50;99.90;;;;;;5037098;28;20021;-69
2023/05/19 03:44:40;;;;;;;10.80;5.05;;;11.50;99.90;;;;;;5038294;28;20071;-69
2023/05/19 03:47:06;;;;;;;8.80;5.80;;;11.50;99.90;;;;;;5038155;28;20493;-69
2023/05/19 03:49:32;;;;;;;10.50;5.28;;;11.40;99.90;;;;;;5036640;28;20501;-70
2023/05/19 03:51:57;;;;;;;10.50;5.03;;;11.40;99.90;;;;;;5038254;28;20022;-69
2023/05/19 03:54:23;;;;;;;7.70;5.00;;;11.40;99.90;;;;;;5038204;28;20092;-69
2023/05/19 03:56:49;;;;;;;9.90;5.15;;;11.50;99.90;;;;;;5038266;28;20025;-69
2023/05/19 03:59:15;;;;;;;9.15;5.22;;;11.40;99.90;;;;;;5038127;28;20064;-69
2023/05/19 04:01:40;;;;;;;11.65;5.40;;;11.40;99.90;;;;;;5038003;28;20096;-69
2023/05/19 04:04:06;;;;;;;10.73;5.25;;;11.40;99.90;;;;;;5037684;28;20092;-69
2023/05/19 04:06:32;;;;;;;9.40;5.28;;;11.40;99.90;;;;;;5036030;28;20053;-69
2023/05/19 04:08:58;;;;;;;9.95;5.13;;;11.40;99.90;;;;;;5035106;28;20022;-69
2023/05/19 04:11:24;;;;;;;7.85;4.53;;;11.40;99.90;;;;;;5034600;28;20021;-69
2023/05/19 04:13:50;;;;;;;9.60;4.90;;;11.40;99.90;;;;;;5037876;28;20029;-70
2023/05/19 04:16:15;;;;;;;8.75;5.43;;;11.40;99.90;;;;;;5037850;28;20025;-69
2023/05/19 04:18:41;;;;;;;10.88;5.25;;;11.40;99.90;;;;;;5037201;28;20225;-69
2023/05/19 04:21:07;;;;;;;7.90;4.85;;;11.40;99.90;;;;;;5037757;28;20018;-70
2023/05/19 04:23:33;;;;;;;5.78;3.90;;;11.40;99.90;;;;;;5037677;28;20022;-70
2023/05/19 04:26:00;;;;;;;7.20;4.80;;;11.30;99.90;;;;;;5037597;28;20024;-69
2023/05/19 04:28:26;;;;;;;11.95;6.70;;;11.30;99.90;;;;;;5037495;28;20022;-69
2023/05/19 04:30:52;;;;;;;9.60;5.72;;;11.30;99.90;;;;;;5037486;28;20067;-69
2023/05/19 04:33:18;;;;;;;7.93;4.97;;;11.30;99.90;;;;;;5037001;28;20486;-70
2023/05/19 04:35:44;;;;;;;9.88;5.28;;;11.30;99.90;;;;;;5037445;28;20104;-69
2023/05/19 04:38:10;;;;;;;6.72;5.20;;;11.30;99.90;;;;;;5035991;28;20022;-69
2023/05/19 04:40:39;;;;;;;8.95;5.57;;;11.30;99.90;;;;;;5037333;28;20043;-69
2023/05/19 04:43:06;;;;;;;10.57;5.55;;;11.30;99.90;;;;;;5037525;28;20029;-69
2023/05/19 04:45:31;;;;;;;10.18;4.82;;;11.30;99.90;;;;;;5037285;28;20175;-69
2023/05/19 04:47:58;;;;;;;11.18;5.63;;;11.30;99.90;;;;;;5036859;28;20375;-70
2023/05/19 04:50:24;;;;;;;12.88;5.20;;;11.30;99.90;;;;;;5035978;28;20091;-69
2023/05/19 04:52:49;;;;;;;9.02;5.18;;;11.30;99.90;;;;;;5037180;28;20035;-69
2023/05/19 04:55:16;;;;;;;7.43;5.05;;;11.30;99.90;;;;;;5035754;28;20030;-70
2023/05/19 04:57:41;;;;;;;9.75;5.80;;;11.30;99.90;;;;;;5035412;28;20040;-69
2023/05/19 05:00:11;;;;;;;14.75;5.85;;;11.30;99.90;;;;;;5030509;28;20025;-69
2023/05/19 05:02:36;;;;;;;11.63;5.63;;;11.30;99.90;;;;;;5035644;28;20017;-69
2023/05/19 05:05:03;;;;;;;7.70;4.82;;;11.30;99.90;;;;;;5036659;28;20497;-70
2023/05/19 05:07:28;;;;;;;6.63;4.57;;;11.40;99.90;;;;;;5037009;28;20128;-70
2023/05/19 05:09:54;;;;;;;14.55;5.88;;;11.40;99.90;;;;;;5026752;28;20050;-69
2023/05/19 05:12:20;;;;;;;8.10;5.47;;;11.40;99.90;;;;;;5027812;28;20022;-69
2023/05/19 05:14:46;;;;;;;10.70;4.97;;;11.40;99.90;;;;;;5022995;28;20030;-69
2023/05/19 05:17:13;;;;;;;7.60;4.40;;;11.40;99.90;;;;;;5025934;28;20535;-70
2023/05/19 05:19:39;;;;;;;14.20;5.30;;;11.40;99.90;;;;;;5028652;28;20414;-70
2023/05/19 05:22:05;;;;;;;11.57;4.95;;;11.40;99.90;;;;;;5036682;28;20478;-69
2023/05/19 05:24:31;;;;;;;16.50;5.55;;;11.50;99.90;;;;;;5035576;28;20453;-70
2023/05/19 05:26:58;;;;;;;8.98;5.32;;;11.50;99.90;;;;;;5036591;28;20112;-70
2023/05/19 05:29:24;;;;;;;13.32;5.22;;;11.50;99.90;;;;;;5034802;28;20021;-69
2023/05/19 05:31:50;;;;;;;11.45;4.70;;;11.50;99.90;;;;;;5035177;28;20072;-70
2023/05/19 05:34:16;;;;;;;8.27;5.07;;;11.50;99.90;;;;;;5025681;28;20054;-69
2023/05/19 05:36:41;;;;;;;7.63;4.53;;;11.60;99.90;;;;;;5035224;28;20021;-69
2023/05/19 05:39:07;;;;;;;9.25;5.03;;;11.60;99.90;;;;;;5036867;28;20057;-69
2023/05/19 05:41:36;;;;;;;7.95;4.82;;;11.60;99.90;;;;;;5035162;28;20025;-69
2023/05/19 05:44:02;;;;;;;10.15;5.45;;;11.60;99.90;;;;;;5036783;28;20045;-69
2023/05/19 05:46:28;;;;;;;7.05;5.22;;;11.60;99.90;;;;;;5036245;28;20456;-69
2023/05/19 05:48:54;;;;;;;6.70;4.32;;;11.70;99.90;;;;;;5036320;28;20075;-68
2023/05/19 05:51:23;;;;;;;6.45;4.85;;;11.70;99.90;;;;;;5035151;28;20036;-69
2023/05/19 05:53:56;;;;;;;8.30;4.32;;;11.70;99.90;;;;;;5036624;28;20116;-68
2023/05/19 05:56:22;;;;;;;8.38;5.05;;;11.70;99.90;;;;;;5051723;28;20032;-68
2023/05/19 05:58:48;;;;;;;7.32;5.10;;;11.70;99.90;;;;;;5036112;28;20490;-69
2023/05/19 06:01:15;;;;;;;6.97;5.30;;;11.70;99.90;;;;;;5023042;28;20044;-69
2023/05/19 06:03:45;;;;;;;7.93;4.68;;;11.70;99.90;;;;;;5030729;28;20018;-69
2023/05/19 06:06:11;;;;;;;6.50;4.82;;;11.70;99.90;;;;;;5034470;28;20564;-69
2023/05/19 06:08:37;;;;;;;8.38;4.90;;;11.70;99.90;;;;;;5033491;28;20029;-70
2023/05/19 06:11:07;;;;;;;9.80;5.57;;;11.70;99.90;;;;;;5032479;28;20163;-69
2023/05/19 06:13:36;;;;;;;;;;;11.70;99.90;;;;;;5032495;28;20036;-69
2023/05/19 06:16:02;;;;;;;7.07;5.28;;;11.70;99.90;;;;;;5032928;28;20380;-69
2023/05/19 06:18:28;;;;;;;12.30;5.63;;;11.70;99.90;;;;;;5030513;28;20052;-69
2023/05/19 06:20:54;;;;;;;7.68;5.55;;;11.70;99.90;;;;;;5028937;28;20043;-70
2023/05/19 06:23:20;;;;;;;12.38;5.20;;;11.80;99.90;;;;;;5035119;28;20081;-70
2023/05/19 06:25:45;;;;;;;15.80;5.28;;;11.80;99.90;;;;;;5033772;28;20045;-69
2023/05/19 06:28:11;;;;;;;9.07;5.85;;;11.90;99.90;;;;;;5037645;28;20056;-69
2023/05/19 06:30:37;;;;;;;10.23;5.40;;;11.90;99.90;;;;;;5034077;28;20053;-69
2023/05/19 06:33:03;;;;;;;9.95;6.18;;;11.90;99.90;;;;;;5037957;28;20029;-69
2023/05/19 06:35:29;;;;;;;10.10;5.05;;;12.00;99.90;;;;;;5036952;28;20030;-69
2023/05/19 06:37:55;;;;;;;6.90;4.60;;;12.00;99.90;;;;;;5038297;28;20032;-69
2023/05/19 06:40:21;;;;;;;17.95;5.80;;;12.10;99.90;;;;;;5034744;28;20022;-69
2023/05/19 06:42:47;;;;;;;6.22;4.72;;;12.10;99.90;;;;;;5038015;28;20497;-69
2023/05/19 06:45:13;;;;;;;6.90;5.35;;;12.20;99.90;;;;;;5038249;28;20018;-69
2023/05/19 06:47:43;;;;;;;9.85;5.13;;;12.20;99.90;;;;;;5032889;28;20041;-69
2023/05/19 06:50:09;;;;;;;10.15;5.50;;;12.20;99.90;;;;;;5034093;28;20397;-69
2023/05/19 06:52:35;;;;;;;10.13;5.85;;;12.20;99.90;;;;;;5036161;28;20128;-69
2023/05/19 06:55:01;;;;;;;9.25;5.65;;;12.20;99.90;;;;;;5033850;28;20025;-69
2023/05/19 06:57:26;;;;;;;13.70;5.43;;;12.10;99.90;;;;;;5032882;28;20030;-69
2023/05/19 06:59:52;;;;;;;13.65;5.43;;;12.20;99.90;;;;;;5034238;28;20029;-70
2023/05/19 07:02:18;;;;;;;13.00;5.20;;;12.20;99.90;;;;;;5034067;28;20394;-69
2023/05/19 07:04:43;;;;;;;8.75;5.22;;;12.20;99.90;;;;;;5037679;28;20021;-69
2023/05/19 07:07:09;;;;;;;10.18;5.20;;;12.20;99.90;;;;;;5038002;28;20100;-69
2023/05/19 07:09:35;;;;;;;8.35;5.10;;;12.10;99.90;;;;;;5037891;28;20030;-69
2023/05/19 07:12:01;;;;;;;8.43;5.38;;;12.20;99.90;;;;;;5036098;28;20032;-69
2023/05/19 07:14:26;;;;;;;7.80;5.68;;;12.20;99.90;;;;;;5037928;28;20125;-68
2023/05/19 07:16:52;;;;;;;7.95;5.35;;;12.10;99.90;;;;;;5037511;28;20064;-69
2023/05/19 07:19:18;;;;;;;7.82;4.88;;;12.10;99.90;;;;;;5033577;28;20111;-69
2023/05/19 07:21:45;;;;;;;8.82;5.25;;;12.20;99.90;;;;;;5034893;28;20029;-69
2023/05/19 07:24:11;;;;;;;8.30;4.82;;;12.20;99.90;;;;;;5036088;28;20021;-69
2023/05/19 07:26:36;;;;;;;8.52;5.53;;;12.20;99.90;;;;;;5029272;28;20036;-69
2023/05/19 07:29:02;;;;;;;6.40;4.60;;;12.20;99.90;;;;;;5034945;28;20155;-69
2023/05/19 07:31:28;;;;;;;7.95;5.18;;;12.20;99.90;;;;;;5037626;28;20033;-69
2023/05/19 07:33:53;;;;;;;7.90;4.75;;;12.20;99.90;;;;;;5037259;28;20099;-68
2023/05/19 07:36:19;;;;;;;10.88;4.75;;;12.20;99.90;;;;;;5036611;28;20513;-69
2023/05/19 07:38:45;;;;;;;9.18;4.47;;;12.10;99.90;;;;;;5037284;28;20498;-69
2023/05/19 07:41:11;;;;;;;7.63;4.63;;;12.10;99.90;;;;;;5034060;28;20025;-68
2023/05/19 07:43:37;;;;;;;9.77;5.15;;;12.00;99.90;;;;;;5037116;28;20049;-69
2023/05/19 07:46:03;;;;;;;8.52;4.70;;;12.10;99.90;;;;;;5034903;28;20128;-69
2023/05/19 07:48:29;;;;;;;11.40;6.38;;;12.10;99.90;;;;;;5032138;28;20021;-69
2023/05/19 07:50:55;;;;;;;7.53;4.78;;;12.10;99.90;;;;;;5036282;28;20018;-69
2023/05/19 07:53:21;;;;;;;11.65;4.72;;;12.10;99.90;;;;;;5037404;28;20026;-69
2023/05/19 07:55:47;;;;;;;13.25;5.28;;;12.10;99.90;;;;;;5035523;28;20033;-69
2023/05/19 07:58:13;;;;;;;8.30;4.20;;;12.10;99.90;;;;;;5036952;28;20048;-69
2023/05/19 08:00:41;;;;;;;5.72;4.28;;;12.20;99.90;;;;;;5036112;28;20085;-69
2023/05/19 08:03:08;;;;;;;7.88;4.75;;;12.20;99.90;;;;;;5036416;28;20059;-68
2023/05/19 08:05:35;;;;;;;11.45;4.93;;;12.10;99.90;;;;;;5036755;28;20036;-68
2023/05/19 08:08:01;;;;;;;8.75;4.47;;;12.10;99.90;;;;;;5035428;28;20434;-69
2023/05/19 08:10:27;;;;;;;13.00;5.35;;;12.20;99.90;;;;;;5033852;28;20029;-69
2023/05/19 08:12:53;;;;;;;10.40;5.05;;;12.20;99.90;;;;;;5036973;28;20024;-69
2023/05/19 08:15:19;;;;;;;8.90;5.05;;;12.30;99.90;;;;;;5029295;28;20044;-69
2023/05/19 08:17:45;;;;;;;14.00;5.13;;;12.40;99.90;;;;;;5036076;28;20044;-69
2023/05/19 08:20:11;;;;;;;8.95;4.93;;;12.40;99.90;;;;;;5035632;28;20033;-69
2023/05/19 08:22:37;;;;;;;12.43;4.82;;;12.50;99.90;;;;;;5036363;28;20014;-69
2023/05/19 08:25:04;;;;;;;11.43;5.60;;;12.50;99.90;;;;;;5036157;28;20025;-69
2023/05/19 08:27:30;;;;;;;8.15;4.63;;;12.70;99.90;;;;;;5036236;28;20020;-69
2023/05/19 08:29:56;;;;;;;8.68;5.32;;;12.80;99.90;;;;;;5035033;28;20116;-69
2023/05/19 08:32:22;;;;;;;10.10;4.82;;;12.90;99.90;;;;;;5032015;28;20092;-69
2023/05/19 08:34:47;;;;;;;7.57;5.78;;;12.90;99.90;;;;;;5034923;28;20033;-69
2023/05/19 08:37:13;;;;;;;8.25;4.80;;;13.00;99.90;;;;;;5036111;28;20025;-69
2023/05/19 08:39:39;;;;;;;9.95;5.32;;;13.00;99.90;;;;;;5035899;28;20032;-69
2023/05/19 08:42:06;;;;;;;9.68;4.90;;;12.80;99.90;;;;;;5035612;28;20537;-70
2023/05/19 08:44:33;;;;;;;6.07;4.05;;;12.60;99.90;;;;;;5034492;28;20079;-68
2023/05/19 08:47:04;;;;;;;9.38;5.07;;;12.50;99.90;;;;;;5036129;28;20026;-68
2023/05/19 08:49:32;;;;;;;7.82;4.68;;;12.50;99.90;;;;;;5034030;28;20473;-69
2023/05/19 08:52:04;;;;;;;9.82;4.22;;;12.60;99.90;;;;;;5035494;28;20032;-68
2023/05/19 08:54:40;;;;;;;9.55;4.90;;;12.70;99.90;;;;;;5034556;28;20704;-69
2023/05/19 08:57:06;;;;;;;10.88;4.50;;;12.80;99.90;;;;;;5034365;28;20029;-69
2023/05/19 08:59:33;;;;;;;11.68;4.85;;;12.90;99.90;;;;;;5035466;28;20049;-69
2023/05/19 09:01:59;;;;;;;10.55;5.53;;;13.00;99.90;;;;;;5035186;28;20018;-68
2023/05/19 09:04:27;;;;;;;12.52;4.55;;;13.00;99.90;;;;;;5035771;28;20470;-69
2023/05/19 09:06:52;;;;;;;9.82;4.90;;;13.10;99.90;;;;;;5035857;28;20055;-69
2023/05/19 09:09:18;;;;;;;11.13;4.45;;;13.10;99.90;;;;;;5035449;28;20045;-69
2023/05/19 09:11:45;;;;;;;10.25;5.00;;;13.10;99.90;;;;;;5034911;28;20041;-68
2023/05/19 09:14:11;;;;;;;8.70;4.40;;;13.10;99.90;;;;;;5034288;28;20116;-69
2023/05/19 09:16:37;;;;;;;10.95;4.22;;;13.20;99.90;;;;;;5035254;28;20091;-69
2023/05/19 09:19:03;;;;;;;8.73;4.40;;;13.20;99.90;;;;;;5034926;28;20060;-69
2023/05/19 09:21:31;;;;;;;9.23;5.00;;;13.30;99.90;;;;;;5033213;28;20026;-69
2023/05/19 09:24:02;;;;;;;8.68;4.57;;;13.40;99.90;;;;;;5034389;28;20486;-68
2023/05/19 09:26:37;;;;;;;8.98;4.60;;;13.40;99.90;;;;;;5034154;28;20033;-69
2023/05/19 09:29:13;;;;;;;6.07;4.18;;;13.40;99.90;;;;;;5034902;28;20037;-68
2023/05/19 09:31:39;;;;;;;10.40;4.95;;;13.40;99.90;;;;;;5033181;28;20047;-69
2023/05/19 09:34:11;;;;;;;11.13;4.75;;;13.30;99.90;;;;;;5033702;28;20025;-68
2023/05/19 09:36:40;;;;;;;8.43;4.28;;;13.30;99.90;;;;;;5033216;28;20224;-69
2023/05/19 09:39:13;;;;;;;11.05;4.47;;;13.40;99.90;;;;;;5034299;28;20030;-69
2023/05/19 09:41:38;;;;;;;7.65;5.10;;;13.50;99.90;;;;;;5032380;28;20032;-68
2023/05/19 09:44:06;;;;;;;9.38;4.85;;;13.60;99.90;;;;;;5035231;28;20029;-69
2023/05/19 09:46:34;;;;;;;13.00;5.00;;;13.70;99.90;;;;;;5035038;28;20020;-68
2023/05/19 09:49:09;;;;;;;14.02;5.22;;;13.80;99.90;;;;;;5033262;28;20025;-69
2023/05/19 09:51:40;;;;;;;5.32;4.20;;;13.80;99.90;;;;;;5032522;28;20021;-68
2023/05/19 09:54:08;;;;;;;7.40;3.90;;;13.90;99.90;;;;;;5034482;28;20026;-69
2023/05/19 09:56:35;;;;;;;7.32;4.82;;;13.80;99.90;;;;;;5034837;28;20022;-68
2023/05/19 09:59:02;;;;;;;15.30;5.03;;;13.70;99.90;;;;;;5034922;28;20156;-68
2023/05/19 10:01:32;;;;;;;5.85;4.30;;;13.60;99.90;;;;;;5031377;28;20053;-69
2023/05/19 10:03:59;;;;;;;7.20;4.60;;;13.60;99.90;;;;;;5030123;28;20049;-69
2023/05/19 10:06:25;;;;;;;8.27;4.15;;;13.60;99.90;;;;;;5036464;28;20017;-69
2023/05/19 10:08:51;;;;;;;10.48;5.10;;;13.70;99.90;;;;;;5038555;28;20022;-69
2023/05/19 10:11:17;;;;;;;13.57;5.10;;;13.70;99.90;;;;;;5037935;28;20036;-69
2023/05/19 10:13:45;;;;;;;6.13;4.43;;;13.70;99.90;;;;;;5038233;28;20029;-69
2023/05/19 10:16:12;;;;;;;8.63;3.92;;;13.70;99.90;;;;;;5038779;28;20473;-68
2023/05/19 10:18:39;;;;;;;10.90;4.97;;;13.70;99.90;;;;;;5036958;28;20049;-69
2023/05/19 10:21:07;;;;;;;7.13;4.07;;;13.80;99.90;;;;;;5034991;28;20014;-69
2023/05/19 10:23:33;;;;;;;6.05;4.80;;;13.90;99.90;;;;;;5034635;28;20072;-68
2023/05/19 10:26:00;;;;;;;10.13;5.18;;;13.80;99.90;;;;;;5038444;28;20093;-69
2023/05/19 10:28:39;;;;;;;7.45;4.55;;;13.80;99.90;;;;;;5038841;28;20026;-69
2023/05/19 10:31:08;;;;;;;10.00;5.95;;;13.90;99.90;;;;;;5037178;28;20021;-69
2023/05/19 10:34:17;;;;;;;9.38;4.47;;;14.10;99.90;;;;;;5038400;28;20033;-68
2023/05/19 10:36:49;;;;;;;11.10;4.10;;;14.10;99.90;;;;;;5038413;28;20025;-69
2023/05/19 10:39:36;;;;;;;6.43;3.85;;;14.20;99.90;;;;;;5038596;28;20026;-70
2023/05/19 10:42:11;;;;;;;11.30;4.45;;;14.10;99.90;;;;;;5033919;28;20029;-68
2023/05/19 10:45:05;;;;;;;7.72;4.28;;;14.20;99.90;;;;;;5038026;28;20034;-69
2023/05/19 10:47:32;;;;;;;9.98;4.70;;;14.30;99.90;;;;;;5033737;28;20032;-69
2023/05/19 10:50:00;;;;;;;11.25;5.15;;;14.30;99.90;;;;;;5037275;28;20057;-69
2023/05/19 10:52:25;;;;;;;7.65;4.28;;;14.30;99.90;;;;;;5036079;28;20043;-69
2023/05/19 10:54:53;;;;;;;12.00;4.78;;;14.50;99.90;;;;;;5038444;28;20030;-69
2023/05/19 10:57:31;;;;;;;5.60;3.90;;;14.60;99.90;;;;;;5037588;28;20043;-69
2023/05/19 10:59:59;;;;;;;6.38;4.50;;;14.40;99.90;;;;;;5038190;28;20028;-69
2023/05/19 11:02:43;;;;;;;5.43;4.03;;;14.30;99.90;;;;;;5035421;28;20025;-69
2023/05/19 11:05:13;;;;;;;7.07;3.75;;;14.40;99.90;;;;;;5035221;28;20406;-69
2023/05/19 11:07:43;;;;;;;7.30;4.37;;;14.30;99.90;;;;;;5035264;28;20056;-69
2023/05/19 11:10:10;;;;;;;8.23;4.10;;;14.30;99.90;;;;;;5035685;28;20390;-68
2023/05/19 11:12:44;;;;;;;7.65;4.45;;;14.30;99.90;;;;;;5037812;28;20022;-69
2023/05/19 11:15:14;;;;;;;9.20;4.03;;;14.30;99.90;;;;;;5033838;28;20501;-68
2023/05/19 11:17:43;;;;;;;7.70;4.60;;;14.20;99.90;;;;;;5036978;28;20111;-69
2023/05/19 11:20:29;;;;;;;11.07;4.28;;;14.20;99.90;;;;;;5030334;28;20057;-69
2023/05/19 11:23:07;;;;;;;8.93;3.58;;;14.20;99.90;;;;;;5033701;28;20415;-69
2023/05/19 11:25:47;;;;;;;8.98;3.78;;;14.20;99.90;;;;;;5036947;28;20022;-68
2023/05/19 11:28:18;;;;;;;8.82;4.43;;;14.20;99.90;;;;;;5034873;28;20071;-69
2023/05/19 11:30:48;;;;;;;9.90;4.30;;;14.30;99.90;;;;;;5032471;28;20025;-68
2023/05/19 11:33:18;;;;;;;9.57;4.13;;;14.40;99.90;;;;;;5035807;28;20026;-70
2023/05/19 11:35:45;;;;;;;12.00;4.53;;;14.40;99.90;;;;;;5033903;28;20041;-69
2023/05/19 11:38:12;;;;;;;11.38;4.25;;;14.30;99.90;;;;;;5034790;28;20029;-69
2023/05/19 11:40:40;;;;;;;6.18;4.30;;;14.20;99.90;;;;;;5034998;28;20097;-68
2023/05/19 11:43:06;;;;;;;9.38;4.90;;;14.10;99.90;;;;;;5036982;28;20029;-69
2023/05/19 11:45:33;;;;;;;6.57;4.63;;;14.20;99.90;;;;;;5036904;28;20037;-69
2023/05/19 11:47:58;;;;;;;7.03;4.55;;;14.10;99.90;;;;;;5036719;28;20027;-69
2023/05/19 11:50:24;;;;;;;8.10;4.25;;;14.20;99.90;;;;;;5036397;28;20045;-68
2023/05/19 11:52:53;;;;;;;8.43;4.10;;;14.30;99.90;;;;;;5036516;28;20041;-69
2023/05/19 11:55:20;;;;;;;6.57;4.10;;;14.50;99.90;;;;;;5033710;28;20021;-69
2023/05/19 11:58:03;;;;;;;7.55;4.15;;;14.60;99.90;;;;;;5044793;28;20498;-69
2023/05/19 12:00:35;;;;;;;8.88;4.30;;;14.60;99.90;;;;;;5030536;28;20013;-69
2023/05/19 12:03:01;;;;;;;8.23;4.30;;;14.70;99.90;;;;;;5035093;28;20029;-69
2023/05/19 12:05:28;;;;;;;8.38;4.07;;;15.00;99.90;;;;;;5032995;28;20044;-70
2023/05/19 12:07:54;;;;;;;7.57;3.58;;;15.00;99.90;;;;;;5033050;28;20033;-69
2023/05/19 12:10:24;;;;;;;6.10;4.57;;;15.10;99.90;;;;;;5033418;28;20021;-69
2023/05/19 12:12:50;;;;;;;11.10;4.65;;;15.00;99.90;;;;;;5028448;28;20030;-69
2023/05/19 12:15:23;;;;;;;6.80;3.40;;;14.90;99.90;;;;;;5033308;28;20037;-70
2023/05/19 12:18:00;;;;;;;7.30;4.05;;;14.90;99.90;;;;;;5043118;28;20052;-69
2023/05/19 12:20:27;;;;;;;14.73;4.82;;;15.00;99.90;;;;;;5036107;28;20028;-70
2023/05/19 12:22:56;;;;;;;9.32;3.97;;;15.10;99.90;;;;;;5037423;28;20556;-69
2023/05/19 12:25:23;;;;;;;7.85;4.10;;;15.20;99.90;;;;;;5036456;28;20036;-69
2023/05/19 12:27:51;;;;;;;5.75;3.60;;;15.20;99.90;;;;;;5034442;28;20033;-69
2023/05/19 12:30:17;;;;;;;8.00;4.00;;;15.30;99.90;;;;;;5036381;28;20060;-69
2023/05/19 12:32:45;;;;;;;7.57;4.38;;;15.30;99.90;;;;;;5036182;28;20021;-69
2023/05/19 12:35:11;;;;;;;8.07;3.78;;;15.30;99.90;;;;;;5017675;28;20103;-68
2023/05/19 12:37:40;;;;;;;7.28;3.95;;;15.20;99.90;;;;;;5032227;28;20025;-69
2023/05/19 12:40:06;;;;;;;10.38;4.45;;;15.20;99.90;;;;;;5036909;28;20474;-70
2023/05/19 12:42:34;;;;;;;10.32;4.80;;;15.30;99.90;;;;;;5034456;28;20017;-69
2023/05/19 12:45:01;;;;;;;10.35;4.50;;;15.30;99.90;;;;;;5036622;28;20021;-69
2023/05/19 12:47:35;;;;;;;11.40;5.35;;;15.30;99.90;;;;;;5035317;28;20048;-69